Steep Hollow, Texas
Current Conditions -  °F | °C
As of 3:53 AM on Friday 31 Oct 2014 (Local Time) from KCLL Reporting Station
Clear Clear  
Wind Chill: 60°   Ceiling: Unl
Heat Index: 60°   Visibility: 7mi
Dew Point: 50°   Wind: 6mph
Humidity: 69%   Direction: 340°NNW
Pressure: 30.13"   Gusts: NA
Location:  30.6361°N, 96.3666°W
Report Text: KCLL 310853Z 34005KT 7SM CLR 16/10 A3013 RMK AO2 SLP199 T01560100 53002
Loading
Personal Weather Stations






























Interactive Weather Map
Tropical Storm Tracking
New forecast layout! Learn more

10-Day Weather Forecast

Advertisements
Track Severe Weather on mobile